Wind EuroAirport

Messzeit Windrichtung Windgeschwindigkeit [Knoten] Rückenwind Nordpiste [Knoten] METAR
2019-06-26 17:30 N 350°
(320°–40°)
4 2–4 LFSB 261530Z 35004KT 320V040 CAVOK 36/22 Q1021 NOSIG
2019-06-26 17:00 NO 40°
(350°–90°)
4 0–4 LFSB 261500Z 04004KT 350V090 CAVOK 36/21 Q1021 NOSIG
2019-06-26 16:30 N 340°
(310°–20°)
4 3–4 LFSB 261430Z 34004KT 310V020 CAVOK 36/21 Q1022 NOSIG
2019-06-26 16:00 N 350°
(310°–10°)
6 5–6 LFSB 261400Z 35006KT 310V010 CAVOK 35/21 Q1022 NOSIG
2019-06-26 15:30 N 10°
(330°–50°)
6 2–6 LFSB 261330Z 01006KT 330V050 CAVOK 35/20 Q1022 NOSIG
2019-06-26 15:00 N 350°
(280°–40°)
4 2–4 LFSB 261300Z 35004KT 280V040 CAVOK 35/21 Q1022 NOSIG
2019-06-26 14:30 N 340°
(300°–40°)
4 2–4 LFSB 261230Z 34004KT 300V040 CAVOK 35/20 Q1023 NOSIG
2019-06-26 14:00 N 340°
(300°–50°)
4 1–4 LFSB 261200Z 34004KT 300V050 CAVOK 34/21 Q1023 NOSIG
2019-06-26 13:30 N 350°
(280°–60°)
3 1–3 LFSB 261130Z 35003KT 280V060 CAVOK 34/20 Q1023 NOSIG
2019-06-26 13:00 NW 320°
(280°–360°)
3 2–3 LFSB 261100Z 32003KT 280V360 CAVOK 33/21 Q1023 NOSIG
2019-06-26 12:30 - 3 - LFSB 261030Z VRB03KT CAVOK 32/20 Q1023 NOSIG
2019-06-26 12:00 - 3 - LFSB 261000Z VRB03KT CAVOK 32/21 Q1023 NOSIG
2019-06-26 11:30 - 2 - LFSB 260930Z VRB02KT CAVOK 31/21 Q1023 NOSIG
2019-06-26 11:00 - 2 - LFSB 260900Z VRB02KT CAVOK 30/21 Q1023 NOSIG
2019-06-26 10:30 - 3 - LFSB 260830Z VRB03KT CAVOK 29/21 Q1023 NOSIG
2019-06-26 10:00 SO 140°
(90°–190°)
3 - LFSB 260800Z 14003KT 090V190 CAVOK 29/21 Q1023 NOSIG
2019-06-26 09:30 O 110°
(80°–140°)
3 - LFSB 260730Z 11003KT 080V140 CAVOK 27/20 Q1023 NOSIG
2019-06-26 09:00 SO 130°
(90°–160°)
5 - LFSB 260700Z 13005KT 090V160 CAVOK 26/19 Q1023 NOSIG
2019-06-26 08:30 SO 140° 4 - LFSB 260630Z 14004KT CAVOK 25/20 Q1023 NOSIG
2019-06-26 08:00 SO 130°
(90°–190°)
3 - LFSB 260600Z 13003KT 090V190 CAVOK 24/20 Q1023 NOSIG
2019-06-26 07:30 S 180° 4 - LFSB 260530Z 18004KT CAVOK 23/20 Q1023 NOSIG
2019-06-26 07:00 S 170° 5 - LFSB 260500Z 17005KT CAVOK 22/20 Q1023 NOSIG
2019-06-26 06:30 - 1 - LFSB 260430Z VRB01KT CAVOK 20/19 Q1023 NOSIG
2019-06-26 06:00 S 180° 3 - LFSB 260400Z 18003KT CAVOK 21/19 Q1022 NOSIG
2019-06-26 05:30 S 170° 4 - LFSB 260330Z 17004KT CAVOK 20/19 Q1022 NOSIG
2019-06-26 05:00 SO 140° 2 - LFSB 260300Z 14002KT 9999 MIFG NSC 20/19 Q1022 NOSIG
2019-06-26 04:30 - 0 - LFSB 260230Z 00000KT CAVOK 21/20 Q1022 NOSIG
2019-06-26 04:00 S 160° 2 - LFSB 260200Z 16002KT CAVOK 21/20 Q1022 NOSIG
2019-06-26 03:30 - 1 - LFSB 260130Z AUTO VRB01KT CAVOK 21/21 Q1022 NOSIG
2019-06-26 03:00 O 100° 1 - LFSB 260100Z AUTO 10001KT CAVOK 21/21 Q1022 NOSIG
2019-06-26 02:30 - 0 - LFSB 260030Z AUTO 00000KT CAVOK 21/20 Q1022 NOSIG
2019-06-26 02:00 - 0 - LFSB 260000Z AUTO 00000KT CAVOK 22/20 Q1022 NOSIG
2019-06-26 01:30 O 100° 2 - LFSB 252330Z AUTO 10002KT CAVOK 22/20 Q1022 NOSIG
2019-06-26 01:00 - 1 - LFSB 252300Z AUTO VRB01KT CAVOK 24/20 Q1022 NOSIG
2019-06-26 00:30 O 80° 3 - LFSB 252230Z AUTO 08003KT CAVOK 24/21 Q1022 NOSIG
2019-06-26 00:00 SW 240° 3 - LFSB 252200Z 24003KT CAVOK 24/20 Q1021 NOSIG
2019-06-25 23:30 W 250° 4 - LFSB 252130Z 25004KT CAVOK 23/21 Q1021 NOSIG
2019-06-25 23:00 SW 230° 3 - LFSB 252100Z 23003KT CAVOK 25/21 Q1021 NOSIG
2019-06-25 22:30 - 2 - LFSB 252030Z VRB02KT CAVOK 26/21 Q1020 NOSIG
2019-06-25 22:00 NW 320° 6 6 LFSB 252000Z 32006KT CAVOK 27/21 Q1020 NOSIG
2019-06-25 21:30 NW 320° 5 5 LFSB 251930Z 32005KT CAVOK 27/21 Q1020 NOSIG
2019-06-25 21:00 NW 320° 4 4 LFSB 251900Z 32004KT CAVOK 28/22 Q1019 NOSIG
2019-06-25 20:30 N 350°
(320°–20°)
4 3–4 LFSB 251830Z 35004KT 320V020 CAVOK 31/23 Q1019 NOSIG
2019-06-25 20:00 N 10° 4 3 LFSB 251800Z 01004KT CAVOK 33/20 Q1019 NOSIG
2019-06-25 19:30 var 360° 6 6 LFSB 251730Z 36006KT CAVOK 33/21 Q1019 NOSIG
2019-06-25 19:00 NO 40°
(360°–70°)
6 0–6 LFSB 251700Z 04006KT 360V070 CAVOK 35/19 Q1019 NOSIG